AirNav   TITAN Aviation Fuels
 
 1114 users online  

3O1 Gustine Airport
Gustine, California, USA

GOING TO GUSTINE?


FAA INFORMATION EFFECTIVE 15 JULY 2021

Location

FAA Identifier: 3O1
Lat/Long: 37-15-38.0000N 120-57-51.3000W
37-15.633333N 120-57.855000W
37.2605556,-120.9642500
(estimated)
Elevation: 79.2 ft. / 24.1 m (surveyed)
Variation: 16E (1985)
From city: 2 miles E of GUSTINE, CA
Time zone: UTC -7 (UTC -8 during Standard Time)
Zip code: 95322

Airport Operations

Airport use: Open to the public
Activation date: 04/1946
Control tower: no
ARTCC: OAKLAND CENTER
FSS: RANCHO MURIETA FLIGHT SERVICE STATION
NOTAMs facility: RIU (NOTAM-D service available)
Attendance: UNATNDD
Pattern altitude: 879.2 ft. MSL
Wind indicator: lighted
Segmented circle: yes
Lights: MIRL RY 18/36 PRESET LOW INTST TO INCR INTST ACTVT CTAF. ACTVT PAPI RY 18 AND PAPI RY 36 CTAF 5 CLICKS.
Beacon: white-green (lighted land airport)
Operates sunset to sunrise.

Airport Communications

CTAF: 122.9
WX AWOS-3 at LSN (13 nm S): 118.675 (209-827-7084)

Nearby radio navigation aids

VOR radial/distance  VOR name  Freq  Var
MODr164/22.0MODESTO VOR/DME114.6017E
HYPr260/27.1EL NIDO VOR/DME114.2015E
PXNr329/33.9PANOCHE VORTAC112.6016E

Airport Services

Fuel available: 100LL
100LL:AUTOMATED CREDIT CARD FUEL SYS 24 HRS.
Parking: tiedowns

Runway Information

Runway 18/36

Dimensions: 3207 x 60 ft. / 977 x 18 m
Surface: asphalt, in fair condition
Weight bearing capacity: 
Single wheel: 12.0
Runway edge lights: medium intensity
RUNWAY 18  RUNWAY 36
Latitude: 37-15.887940N37-15.379753N
Longitude: 120-57.764983W120-57.946400W
Elevation: 77.8 ft.79.2 ft.
Traffic pattern: leftleft
Runway heading: 180 magnetic, 196 true000 magnetic, 016 true
Markings: basic, in fair conditionbasic, in fair condition
Visual slope indicator: 2-light PAPI on left (3.00 degrees glide path)2-light PAPI on left (3.00 degrees glide path)
Runway end identifier lights: nono
Touchdown point: yes, no lightsyes, no lights
Obstructions: 15 ft. road, 490 ft. from runway, 155 ft. right of centerline, 19:1 slope to clear35 ft. pline, 1450 ft. from runway, 530 ft. left of centerline, 36:1 slope to clear

Airport Ownership and Management from official FAA records

Ownership: Publicly-owned
Owner: CITY OF GUSTINE
PO BOX 16, 352 FIFTH STREET
GUSTINE, CA 95322-0016
Phone 209-854-6471
Manager: JAMI WESTERVELT
PO BOX 16, 352 FIFTH STREET
GUSTINE, CA 95322-0016
Phone 209-854-6471
CITY HALL

Airport Operational Statistics

Aircraft based on the field: 10
Single engine airplanes: 9
Multi engine airplanes: 1
    
Aircraft operations: avg 22/day *
75% local general aviation
25% transient general aviation
* for 12-month period ending 21 November 2019

Additional Remarks

675 X 50 PAVED RY SAFETY AREA AT NORTH END OF RY UNUSABLE FOR TKOF/LNDG.
BIRD ACTIVITY INVOF ARPT.
FOR CD CTC NORCAL APCH AT 916-361-0516.

Instrument Procedures

There are no published instrument procedures at 3O1.

Some nearby airports with instrument procedures:

KLSN - Los Banos Municipal Airport (13 nm S)
KMER - Castle Airport (20 nm E)
KMCE - Merced Regional Airport/Macready Field (22 nm E)
KMOD - Modesto City-County Airport-Harry Sham Field (22 nm N)
KCVH - Hollister Municipal Airport (31 nm SW)
 
Loc | Ops | Rwys | IFR | FBO | Links
Com | Nav | Svcs | Stats | Notes
Area around 3O1 (Gustine Airport)
 
Road maps at: MapQuest Bing Google
 
Aerial photo
WARNING: Photo may not be current or correct
Aerial photo of 3O1 (Gustine Airport)
Photo by Mike Musson

Do you have a better or more recent aerial photo of Gustine Airport that you would like to share? If so, please send us your photo.

 
Sectional chart

 
Airport distance calculator
Flying to Gustine Airport? Find the distance to fly.

From to 3O1

Sunrise and sunset
Times for 02-Aug-2021
 Local
(UTC-7)
 Zulu
(UTC)
Morning civil twilight05:4212:42
Sunrise06:1013:10
Sunset20:1003:10
Evening civil twilight20:3903:39

Current date and time
Zulu (UTC)  03-Aug-2021 00:51:02
Local (UTC-7)  02-Aug-2021 17:51:02
 
METAR
KMER 
20nm E 
022345Z 31009KT 7SM FEW110 26/10 A2996
KMOD 
21nm N 
022353Z 31010KT 10SM CLR 32/09 A2996 RMK AO2 SLP144 T03220094 10328 20233 58019
KMCE 
22nm E 
022353Z AUTO 34012KT 10SM CLR 34/12 A2995 RMK AO2 SLP140 T03440122 10356 20256 56020
KCVH 
31nm SW 
030035Z AUTO 24016G21KT 10SM CLR 25/12 A3001 RMK A01
KE16 
32nm W 
030035Z AUTO 33013G16KT 10SM CLR 30/12 A3001 RMK AO2 PWINO PNO
KTCY 
34nm NW 
030035Z AUTO 35007KT 10SM CLR 32/09 A2998 RMK A01
KSCK 
39nm N 
022355Z 31009KT 7SM CLR 33/07 A2997 RMK AO2 SLP149 T03280072 10328 20228 56020
TAF
KMER 
20nm E 
021720Z 0218/0318 32006KT P6SM SKC
KMOD 
21nm N 
021723Z 0218/0318 33009KT P6SM SCT250
KMCE 
22nm E 
021720Z 0218/0318 32006KT P6SM SKC
NOTAMs
Click for the latest NOTAMs
NOTAMs are issued by the DoD/FAA and will open in a separate window not controlled by AirNav.

 

 
 

FBO, Fuel Providers, and Aircraft Ground Support

  
 Business Name 
 
 Contact 
 
 Services / Description 
 
Fuel Prices
 
Comments
  
Gustine Airport 209-854-6471
[web site]
[email]
Airport management, Aviation fuel, Public telephone, Restrooms

More info about Gustine Airport
independent
100LL
SS $4.87 
GUARANTEED
 
   write
SS=Self service
Update Fuel Prices
 

Would you like to see your business listed on this page?

 If your business provides an interesting product or service to pilots, flight crews, aircraft, or users of the Gustine Airport, you should consider listing it here.  To start the listing process, click on the button below
 
Add a business
 

Other Pages about Gustine Airport

Update a link
 
Copyright © AirNav, LLC. All rights reserved. Privacy Policy  Contact